Pagrindinis puslapis
METAR-TAF:

METAR-TAF

Oro uostai :

Apalachicola, Florida, Jungtinės Amerikos Valstijos

platuma: 29-43-37N, ilguma: 085-01-29W, Aukštis: 6 m

Dabartinis oras

Ataskaita buvo paskelbta 40 minutes, ne 17:53 UTC
Vėjas 6 kt iš Pietų
Temperatūra 22°C
Drėgmė 46%
Slėgis 1015 hPa
Matomumas: 16.1 km
Giedras dangus

METAR: KAAF 171753Z AUTO 18006KT 10SM CLR 22/10 A2998 RMK AO2 SLP151 T02170100 10228 20161 58012 $

Laikas: 14:33 (18:33 UTC)


TAF: trūkstamas

Orai ataskaitas ir orų prognozės (METAR, TAF).

turimą stotys yra geltonos ir raudonos taškus žemėlapyje.

Perkelti pele per norėdami pamatyti stoties vardą.

Tada spustelėkite, norėdami matyti oro stebėjimo ir prognozės.

Norėdami pakeisti žemėlapį: spustelėkite ant žalios mygtukų su juodo kryžiaus žemyn,; žalią mygtuką su brūkšneliu, jei norite nutolinti; arba žalių rodyklių gretimoms žemėlapius.


METAR-TAF: